Time;durP1;ratioP1;P1;durP2;ratioP2;P2;SDS_P1;SDS_P2;PMS_P1;PMS_P2;Temp;Humidity;BMP_temperature;BMP_pressure;BME280_temperature;BME280_humidity;BME280_pressure;Samples;Min_cycle;Max_cycle;Signal;HPM_P1;HPM_P2
2021/05/17 00:01:04;;;;;;;3.13;1.63;;;15.10;56.00;;;;;;4141959;28;20722;-61
2021/05/17 00:03:09;;;;;;;3.88;1.80;;;15.10;56.10;;;;;;4141424;28;20529;-61
2021/05/17 00:05:12;;;;;;;3.47;1.60;;;15.10;56.10;;;;;;4144110;28;20131;-61
2021/05/17 00:07:14;;;;;;;3.42;1.65;;;15.10;56.00;;;;;;4144036;28;20025;-63
2021/05/17 00:09:17;;;;;;;3.95;1.70;;;15.10;55.80;;;;;;4144514;28;20045;-64
2021/05/17 00:11:19;;;;;;;3.70;1.70;;;15.10;55.40;;;;;;4140389;28;20608;-64
2021/05/17 00:13:21;;;;;;;2.13;1.50;;;15.10;54.70;;;;;;4142090;28;20060;-64
2021/05/17 00:15:23;;;;;;;2.55;1.42;;;15.10;54.20;;;;;;4142375;28;21610;-62
2021/05/17 00:17:26;;;;;;;2.78;1.50;;;15.10;54.20;;;;;;4141498;28;20048;-63
2021/05/17 00:19:28;;;;;;;1.50;1.40;;;15.10;54.00;;;;;;4141981;28;20039;-63
2021/05/17 00:21:30;;;;;;;2.22;1.67;;;15.10;53.80;;;;;;4141103;28;20441;-63
2021/05/17 00:23:33;;;;;;;6.07;1.50;;;15.10;53.80;;;;;;4140920;28;20639;-63
2021/05/17 00:25:35;;;;;;;2.42;1.77;;;15.10;53.70;;;;;;4141212;28;20029;-64
2021/05/17 00:27:37;;;;;;;1.58;1.17;;;15.10;53.70;;;;;;4144584;28;20509;-63
2021/05/17 00:29:40;;;;;;;3.58;1.60;;;15.10;53.60;;;;;;4142674;28;20100;-63
2021/05/17 00:31:43;;;;;;;2.60;1.38;;;15.10;53.60;;;;;;4142933;28;20033;-65
2021/05/17 00:33:46;;;;;;;1.73;1.38;;;15.10;53.60;;;;;;4144082;28;20036;-64
2021/05/17 00:35:50;;;;;;;2.60;1.80;;;15.00;53.50;;;;;;4143138;28;20504;-64
2021/05/17 00:37:53;;;;;;;2.55;1.67;;;15.10;53.50;;;;;;4142014;28;21581;-65
2021/05/17 00:39:55;;;;;;;2.70;1.42;;;15.10;53.40;;;;;;4143218;28;20332;-64
2021/05/17 00:41:57;;;;;;;3.00;1.42;;;15.10;53.50;;;;;;4141913;28;20048;-64
2021/05/17 00:44:00;;;;;;;1.30;1.20;;;15.00;53.90;;;;;;4139752;28;20667;-64
2021/05/17 00:46:07;;;;;;;3.80;1.77;;;15.00;53.40;;;;;;4145370;28;20051;-63
2021/05/17 00:48:10;;;;;;;1.70;1.17;;;15.10;53.30;;;;;;4138718;28;20091;-61
2021/05/17 00:50:18;;;;;;;2.60;1.50;;;15.10;53.30;;;;;;4144411;28;20523;-62
2021/05/17 00:52:21;;;;;;;1.98;1.35;;;15.10;53.30;;;;;;4145109;28;20017;-61
2021/05/17 00:54:23;;;;;;;4.03;1.63;;;15.10;53.50;;;;;;4143680;28;20180;-60
2021/05/17 00:56:26;;;;;;;2.85;1.25;;;15.10;53.70;;;;;;4144316;28;20315;-65
2021/05/17 00:58:28;;;;;;;1.90;1.30;;;15.10;54.20;;;;;;4148199;28;20111;-62
2021/05/17 01:00:32;;;;;;;2.53;1.40;;;15.10;54.40;;;;;;4145082;28;20037;-62
2021/05/17 01:02:34;;;;;;;4.35;1.40;;;15.20;54.70;;;;;;4145928;28;20422;-64
2021/05/17 01:04:36;;;;;;;2.95;1.52;;;15.20;55.00;;;;;;4141748;28;20045;-65
2021/05/17 01:06:41;;;;;;;3.70;1.30;;;15.30;55.10;;;;;;4145512;28;20037;-61
2021/05/17 01:08:50;;;;;;;4.22;1.27;;;15.30;55.10;;;;;;4144947;28;20544;-62
2021/05/17 01:10:57;;;;;;;4.63;1.50;;;15.30;55.20;;;;;;4146029;28;20037;-65
2021/05/17 01:12:59;;;;;;;2.50;1.27;;;15.40;55.30;;;;;;4144513;28;20582;-62
2021/05/17 01:15:02;;;;;;;4.40;1.60;;;15.40;55.30;;;;;;4146421;28;20693;-61
2021/05/17 01:17:05;;;;;;;3.03;1.17;;;15.40;55.40;;;;;;4144822;28;20124;-62
2021/05/17 01:19:10;;;;;;;;;;;15.50;55.50;;;;;;4147737;28;20546;-63
2021/05/17 01:21:18;;;;;;;2.35;1.10;;;15.50;55.70;;;;;;4145380;28;20495;-65
2021/05/17 01:25:27;;;;;;;1.77;1.58;;;15.60;55.40;;;;;;4148544;28;20040;-61
2021/05/17 01:27:31;;;;;;;4.20;1.30;;;15.60;55.60;;;;;;4144457;28;20083;-61
2021/05/17 01:29:33;;;;;;;2.05;1.05;;;15.60;55.60;;;;;;4142417;28;20915;-64
2021/05/17 01:31:36;;;;;;;2.53;1.42;;;15.60;55.60;;;;;;4146063;28;20380;-65
2021/05/17 01:33:41;;;;;;;2.80;1.17;;;15.70;55.70;;;;;;4143702;28;20033;-62
2021/05/17 01:35:44;;;;;;;3.15;1.10;;;15.70;55.60;;;;;;4146525;28;20853;-63
2021/05/17 01:37:47;;;;;;;1.63;1.30;;;15.70;55.70;;;;;;4142343;28;20447;-63
2021/05/17 01:39:53;;;;;;;1.00;1.00;;;15.80;55.70;;;;;;4144251;28;20028;-66
2021/05/17 01:41:55;;;;;;;3.67;1.02;;;15.80;55.60;;;;;;4145392;28;20049;-62
2021/05/17 01:43:58;;;;;;;3.13;1.60;;;15.90;55.90;;;;;;4146914;28;20507;-62
2021/05/17 01:46:07;;;;;;;2.72;1.40;;;15.90;55.70;;;;;;4144461;28;20110;-61
2021/05/17 01:48:10;;;;;;;1.23;1.00;;;15.90;55.80;;;;;;4145774;28;20134;-61
2021/05/17 01:50:16;;;;;;;1.70;1.30;;;16.00;55.80;;;;;;4144915;28;20040;-63
2021/05/17 01:52:19;;;;;;;1.52;1.17;;;16.00;55.80;;;;;;4146333;28;20036;-64
2021/05/17 01:54:21;;;;;;;3.05;1.30;;;16.00;55.80;;;;;;4144910;28;20057;-64
2021/05/17 01:56:23;;;;;;;2.55;1.25;;;16.10;55.80;;;;;;4144607;28;20049;-64
2021/05/17 01:58:25;;;;;;;2.22;1.35;;;16.10;55.70;;;;;;4145137;28;20048;-62
2021/05/17 02:00:30;;;;;;;1.33;1.23;;;16.10;55.70;;;;;;4147364;28;20125;-63
2021/05/17 02:02:32;;;;;;;3.47;1.10;;;16.20;55.80;;;;;;4144487;28;20110;-63
2021/05/17 02:04:35;;;;;;;1.20;1.10;;;16.20;55.40;;;;;;4141504;28;20045;-63
2021/05/17 02:06:37;;;;;;;2.38;1.15;;;16.20;55.10;;;;;;4148736;28;20029;-62
2021/05/17 02:08:42;;;;;;;4.22;1.60;;;16.30;55.00;;;;;;4143728;28;20029;-63
2021/05/17 02:10:46;;;;;;;2.20;1.40;;;16.30;54.80;;;;;;4144445;28;20423;-63
2021/05/17 02:12:49;;;;;;;3.75;1.33;;;16.30;54.70;;;;;;4143805;28;20060;-62
2021/05/17 02:14:55;;;;;;;1.75;1.13;;;16.20;54.50;;;;;;4146495;28;20041;-63
2021/05/17 02:16:57;;;;;;;2.65;1.17;;;16.20;54.50;;;;;;4143985;28;20107;-63
2021/05/17 02:19:00;;;;;;;7.97;1.35;;;16.30;54.40;;;;;;4148376;28;21138;-63
2021/05/17 02:21:02;;;;;;;2.20;1.00;;;16.20;54.30;;;;;;4148767;28;20064;-63
2021/05/17 02:23:05;;;;;;;1.58;1.05;;;16.30;54.30;;;;;;4149842;28;20524;-61
2021/05/17 02:25:08;;;;;;;1.25;1.08;;;16.20;54.20;;;;;;4153725;28;20134;-63
2021/05/17 02:27:11;;;;;;;1.92;1.00;;;16.30;54.70;;;;;;4156657;28;20095;-61
2021/05/17 02:29:13;;;;;;;2.73;1.10;;;16.30;54.10;;;;;;4151382;28;20145;-61
2021/05/17 02:31:15;;;;;;;7.90;1.83;;;16.30;54.30;;;;;;4146343;28;20040;-60
2021/05/17 02:33:18;;;;;;;4.53;1.50;;;16.40;54.60;;;;;;4144640;28;20048;-60
2021/05/17 02:35:21;;;;;;;5.07;1.60;;;16.90;54.10;;;;;;4145579;28;20403;-60
2021/05/17 02:37:27;;;;;;;4.68;1.30;;;17.60;53.10;;;;;;4145030;28;20086;-60
2021/05/17 02:39:29;;;;;;;2.25;1.25;;;18.20;51.90;;;;;;4146212;28;20336;-59
2021/05/17 02:41:37;;;;;;;4.60;1.45;;;18.80;50.70;;;;;;4145355;28;20109;-60
2021/05/17 02:43:41;;;;;;;3.08;1.10;;;19.30;49.90;;;;;;4142454;28;20901;-61
2021/05/17 02:45:43;;;;;;;2.30;1.30;;;19.80;49.00;;;;;;4149254;28;20048;-59
2021/05/17 02:47:46;;;;;;;2.50;1.10;;;20.30;48.40;;;;;;4146084;28;20042;-60
2021/05/17 02:49:50;;;;;;;3.78;1.10;;;20.30;47.70;;;;;;4148993;28;20029;-61
2021/05/17 02:51:52;;;;;;;3.58;1.52;;;20.20;48.20;;;;;;4148035;28;20133;-61
2021/05/17 02:53:54;;;;;;;2.90;1.23;;;20.30;48.50;;;;;;4147736;28;20032;-61
2021/05/17 02:55:58;;;;;;;2.67;1.33;;;20.50;48.30;;;;;;4143766;28;20072;-59
2021/05/17 02:58:06;;;;;;;1.98;1.23;;;21.00;47.90;;;;;;4149074;28;20102;-59
2021/05/17 03:00:10;;;;;;;2.28;1.30;;;21.20;47.00;;;;;;4145899;28;20202;-59
2021/05/17 03:02:17;;;;;;;7.43;1.60;;;21.20;46.80;;;;;;4148887;28;20224;-62
2021/05/17 03:04:21;;;;;;;3.95;1.42;;;21.00;47.30;;;;;;4146610;28;20526;-61
2021/05/17 03:06:32;;;;;;;3.55;1.10;;;21.00;47.40;;;;;;4148388;28;20403;-60
2021/05/17 03:08:50;;;;;;;5.05;1.33;;;20.90;47.60;;;;;;4148046;28;20037;-62
2021/05/17 03:10:58;;;;;;;2.00;1.02;;;20.70;47.80;;;;;;4146970;28;20072;-61
2021/05/17 03:13:08;;;;;;;3.65;1.42;;;20.60;48.50;;;;;;4150587;28;20276;-61
2021/05/17 03:15:13;;;;;;;6.10;1.35;;;20.50;48.80;;;;;;4146887;28;20043;-60
2021/05/17 03:17:18;;;;;;;2.92;1.25;;;20.40;49.10;;;;;;4148073;28;20037;-59
2021/05/17 03:19:21;;;;;;;1.67;1.10;;;20.30;49.20;;;;;;4144288;28;20244;-60
2021/05/17 03:21:27;;;;;;;2.25;1.15;;;20.30;49.40;;;;;;4148817;28;20553;-58
2021/05/17 03:23:30;;;;;;;3.00;1.33;;;20.40;49.00;;;;;;4144458;28;20053;-60
2021/05/17 03:25:33;;;;;;;2.40;1.10;;;20.50;48.80;;;;;;4144237;28;20029;-60
2021/05/17 03:27:36;;;;;;;1.45;0.90;;;20.50;49.00;;;;;;4149427;28;20047;-60
2021/05/17 03:29:38;;;;;;;1.40;0.95;;;20.50;49.10;;;;;;4145410;28;20345;-62
2021/05/17 03:31:40;;;;;;;3.90;1.10;;;20.40;49.20;;;;;;4147680;28;20905;-59
2021/05/17 03:33:43;;;;;;;2.40;0.90;;;20.30;50.00;;;;;;4144221;28;20024;-59
2021/05/17 03:35:45;;;;;;;2.35;1.23;;;20.40;49.50;;;;;;4147210;28;20779;-59
2021/05/17 03:37:48;;;;;;;2.97;1.20;;;20.50;49.00;;;;;;4144840;28;20032;-60
2021/05/17 03:39:51;;;;;;;1.35;0.90;;;20.60;49.10;;;;;;4149374;28;20028;-59
2021/05/17 03:41:53;;;;;;;5.43;1.20;;;20.50;49.20;;;;;;4143138;28;20045;-58
2021/05/17 03:43:55;;;;;;;3.13;1.05;;;20.40;49.40;;;;;;4145546;28;20660;-61
2021/05/17 03:45:57;;;;;;;3.67;1.40;;;20.40;49.60;;;;;;4145371;28;20611;-60
2021/05/17 03:47:59;;;;;;;2.00;0.90;;;20.30;49.90;;;;;;4144301;28;20132;-60
2021/05/17 03:50:02;;;;;;;4.00;1.33;;;20.20;50.10;;;;;;4147945;28;20055;-60
2021/05/17 03:52:05;;;;;;;2.25;0.88;;;20.20;50.30;;;;;;4149198;28;20044;-59
2021/05/17 03:54:07;;;;;;;1.65;1.00;;;20.10;50.30;;;;;;4145578;28;20474;-60
2021/05/17 03:56:09;;;;;;;4.35;0.93;;;20.10;50.20;;;;;;4146660;28;20053;-61
2021/05/17 03:58:12;;;;;;;7.22;0.93;;;20.40;49.90;;;;;;4146975;28;20358;-61
2021/05/17 04:00:14;;;;;;;1.85;1.02;;;20.50;49.30;;;;;;4147270;28;20052;-61
2021/05/17 04:02:19;;;;;;;1.95;1.00;;;20.50;49.20;;;;;;4145270;28;20057;-60
2021/05/17 04:04:23;;;;;;;1.92;0.80;;;20.60;49.40;;;;;;4148744;28;20025;-61
2021/05/17 04:06:32;;;;;;;2.53;1.00;;;20.60;49.40;;;;;;4144764;28;20633;-61
2021/05/17 04:13:22;;;;;;;2.13;1.00;;;20.60;49.80;;;;;;4146694;28;20394;-62
2021/05/17 04:15:24;;;;;;;2.65;1.02;;;20.60;49.80;;;;;;4146932;28;20821;-61
2021/05/17 04:17:26;;;;;;;1.02;0.75;;;20.60;50.00;;;;;;4128509;28;20459;-61
2021/05/17 04:19:28;;;;;;;1.50;0.90;;;20.60;49.90;;;;;;4142870;28;20033;-61
2021/05/17 04:21:31;;;;;;;5.88;1.20;;;20.60;49.80;;;;;;4146042;28;20654;-61
2021/05/17 04:23:33;;;;;;;1.90;1.10;;;20.60;49.90;;;;;;4144489;28;20361;-60
2021/05/17 04:25:35;;;;;;;1.73;1.10;;;20.60;50.00;;;;;;4146175;28;20033;-62
2021/05/17 04:27:37;;;;;;;6.60;0.90;;;20.60;49.90;;;;;;4149086;28;20059;-59
2021/05/17 04:29:39;;;;;;;1.27;0.90;;;20.70;50.00;;;;;;4144645;28;20040;-61
2021/05/17 04:31:41;;;;;;;3.63;1.08;;;20.70;49.90;;;;;;4145563;28;20037;-60
2021/05/17 04:33:43;;;;;;;0.95;0.80;;;20.70;49.90;;;;;;4144076;28;20897;-61
2021/05/17 04:35:45;;;;;;;1.55;0.60;;;20.70;50.00;;;;;;4145820;28;20448;-60
2021/05/17 04:37:48;;;;;;;1.60;1.00;;;20.70;49.80;;;;;;4146259;28;20457;-60
2021/05/17 04:39:50;;;;;;;1.00;0.60;;;20.70;48.80;;;;;;4146776;28;20044;-60
2021/05/17 04:41:52;;;;;;;2.00;0.80;;;20.60;48.10;;;;;;4142710;28;20052;-60
2021/05/17 04:43:54;;;;;;;2.58;1.17;;;20.60;48.20;;;;;;4143551;28;20097;-61
2021/05/17 04:45:56;;;;;;;0.93;0.82;;;20.60;48.30;;;;;;4147740;28;20101;-62
2021/05/17 04:47:59;;;;;;;2.42;0.93;;;20.60;48.40;;;;;;4144835;28;20595;-61
2021/05/17 04:50:01;;;;;;;2.85;1.00;;;20.70;48.70;;;;;;4144243;28;21019;-59
2021/05/17 04:52:03;;;;;;;3.35;1.02;;;20.70;48.80;;;;;;4137504;28;20036;-62
2021/05/17 04:54:06;;;;;;;1.70;0.70;;;20.60;49.00;;;;;;4138449;28;20044;-60
2021/05/17 04:56:08;;;;;;;5.85;0.82;;;20.60;49.20;;;;;;4132607;28;20126;-61
2021/05/17 04:58:10;;;;;;;7.22;1.80;;;20.50;49.40;;;;;;4139368;28;20568;-61
2021/05/17 05:00:13;;;;;;;2.17;1.15;;;20.50;49.60;;;;;;4138455;28;20477;-62
2021/05/17 05:02:15;;;;;;;5.65;1.50;;;20.50;49.60;;;;;;4136319;28;20068;-59
2021/05/17 05:04:17;;;;;;;8.50;1.50;;;20.40;49.90;;;;;;4140655;28;20037;-59
2021/05/17 05:06:19;;;;;;;5.28;1.00;;;20.40;50.40;;;;;;4137839;28;20084;-62
2021/05/17 05:08:22;;;;;;;7.22;1.00;;;20.40;50.70;;;;;;4139754;28;20028;-60
2021/05/17 05:10:24;;;;;;;4.82;1.00;;;20.30;50.80;;;;;;4139441;28;20807;-61
2021/05/17 05:12:26;;;;;;;2.97;1.05;;;20.30;50.90;;;;;;4134598;28;21465;-61
2021/05/17 05:14:28;;;;;;;2.85;0.90;;;20.30;51.00;;;;;;4139493;28;20049;-61
2021/05/17 05:16:30;;;;;;;1.77;1.02;;;20.20;51.00;;;;;;4135388;28;20769;-62
2021/05/17 05:18:32;;;;;;;3.50;1.23;;;20.20;51.10;;;;;;4140451;28;20095;-61
2021/05/17 05:20:34;;;;;;;0.95;0.82;;;20.30;51.10;;;;;;4132690;28;20095;-61
2021/05/17 05:22:37;;;;;;;3.53;0.90;;;20.30;51.00;;;;;;4134322;28;20045;-61
2021/05/17 05:24:40;;;;;;;1.75;0.90;;;20.30;51.00;;;;;;4135957;28;20491;-61
2021/05/17 05:31:29;;;;;;;2.33;0.95;;;20.20;51.10;;;;;;4136189;28;20425;-60
2021/05/17 05:33:32;;;;;;;6.03;1.05;;;20.20;51.10;;;;;;4124193;28;21298;-60
2021/05/17 05:35:34;;;;;;;1.42;0.93;;;20.20;51.20;;;;;;4140808;28;20041;-62
2021/05/17 05:37:36;;;;;;;4.30;0.80;;;20.30;51.30;;;;;;4140655;28;20138;-60
2021/05/17 05:39:38;;;;;;;5.93;1.90;;;20.30;51.40;;;;;;4140151;28;20438;-64
2021/05/17 05:41:41;;;;;;;3.17;1.02;;;20.30;51.40;;;;;;4141352;28;20639;-63
2021/05/17 05:43:43;;;;;;;1.85;0.60;;;20.30;51.20;;;;;;4138764;28;20029;-61
2021/05/17 05:45:46;;;;;;;1.20;0.73;;;20.30;51.20;;;;;;4133740;28;20032;-61
2021/05/17 05:47:48;;;;;;;0.63;0.63;;;20.30;51.30;;;;;;4134602;28;20041;-61
2021/05/17 05:49:51;;;;;;;2.22;0.90;;;20.20;51.40;;;;;;4129710;28;20200;-62
2021/05/17 05:51:53;;;;;;;1.45;0.85;;;20.20;51.50;;;;;;4134938;28;20815;-62
2021/05/17 05:53:57;;;;;;;2.25;0.98;;;20.20;51.50;;;;;;4136253;28;20095;-63
2021/05/17 05:55:59;;;;;;;3.17;0.90;;;20.20;51.50;;;;;;4132188;28;20142;-62
2021/05/17 05:58:04;;;;;;;1.42;0.77;;;20.20;51.60;;;;;;4135948;28;20040;-62
2021/05/17 06:00:09;;;;;;;1.30;0.80;;;20.10;51.60;;;;;;4134412;28;20591;-62
2021/05/17 06:02:12;;;;;;;1.27;0.80;;;20.10;51.70;;;;;;4132946;28;20144;-62
2021/05/17 06:04:14;;;;;;;1.35;0.88;;;20.10;51.80;;;;;;4138591;28;20501;-61
2021/05/17 06:06:16;;;;;;;1.83;0.75;;;20.00;51.80;;;;;;4136338;28;20972;-62
2021/05/17 06:08:19;;;;;;;0.65;0.60;;;20.00;51.90;;;;;;4133236;28;20115;-63
2021/05/17 06:10:21;;;;;;;1.70;0.80;;;20.00;51.90;;;;;;4134031;28;20856;-62
2021/05/17 06:12:24;;;;;;;1.90;0.73;;;20.00;52.00;;;;;;4132332;28;20566;-61
2021/05/17 06:14:27;;;;;;;2.53;0.93;;;20.10;52.00;;;;;;4134903;28;20049;-61
2021/05/17 06:16:31;;;;;;;0.75;0.70;;;20.00;51.90;;;;;;4136588;28;20368;-61
2021/05/17 06:18:34;;;;;;;1.17;0.95;;;20.10;52.00;;;;;;4133281;28;20033;-61
2021/05/17 06:20:36;;;;;;;1.92;0.80;;;20.00;52.00;;;;;;4136266;28;20041;-63
2021/05/17 06:22:38;;;;;;;2.90;0.98;;;20.10;52.10;;;;;;4131421;28;20076;-62
2021/05/17 06:24:41;;;;;;;1.87;1.00;;;20.10;52.10;;;;;;4137866;28;20317;-62
2021/05/17 06:26:46;;;;;;;1.33;0.75;;;20.10;52.10;;;;;;4131961;28;20187;-62
2021/05/17 06:28:48;;;;;;;2.08;0.90;;;20.10;52.10;;;;;;4132647;28;20033;-63
2021/05/17 06:30:54;;;;;;;2.10;1.05;;;20.10;52.10;;;;;;4136478;28;20025;-60
2021/05/17 06:32:57;;;;;;;1.60;0.95;;;20.10;52.00;;;;;;4136242;28;20041;-61
2021/05/17 06:35:00;;;;;;;2.38;1.25;;;20.00;52.20;;;;;;4142848;28;20049;-62
2021/05/17 06:37:02;;;;;;;2.22;0.95;;;20.00;52.30;;;;;;4137169;28;20032;-65
2021/05/17 06:39:07;;;;;;;3.83;1.05;;;20.00;52.40;;;;;;4141901;28;20302;-62
2021/05/17 06:41:41;;;;;;;1.17;0.88;;;20.00;52.50;;;;;;4157999;28;20446;-61
2021/05/17 06:43:46;;;;;;;2.25;1.05;;;20.00;52.70;;;;;;4128130;28;20794;-62
2021/05/17 06:45:49;;;;;;;1.73;1.00;;;19.90;52.20;;;;;;4138207;28;20033;-61
2021/05/17 06:47:52;;;;;;;2.28;1.10;;;19.90;52.30;;;;;;4131788;28;20045;-59
2021/05/17 06:49:54;;;;;;;3.03;1.30;;;19.90;52.50;;;;;;4133080;28;20059;-60
2021/05/17 06:51:56;;;;;;;3.88;0.90;;;19.90;52.60;;;;;;4135678;28;20033;-61
2021/05/17 06:54:01;;;;;;;2.03;1.37;;;19.90;52.80;;;;;;4133755;28;20052;-63
2021/05/17 06:56:06;;;;;;;2.03;0.80;;;19.90;52.80;;;;;;4132096;28;20914;-60
2021/05/17 07:00:37;;;;;;;3.08;0.80;;;19.80;52.80;;;;;;4116784;28;20068;-60
2021/05/17 07:02:41;;;;;;;1.85;1.20;;;19.80;52.90;;;;;;4134404;28;20124;-62
2021/05/17 07:04:44;;;;;;;4.03;1.50;;;19.80;52.90;;;;;;4130366;28;20323;-61
2021/05/17 07:06:55;;;;;;;1.63;1.00;;;19.80;53.00;;;;;;4134517;28;20150;-62
2021/05/17 07:13:39;;;;;;;2.72;1.05;;;19.80;53.10;;;;;;4137894;28;20072;-61
2021/05/17 07:15:41;;;;;;;2.08;1.00;;;19.80;53.20;;;;;;4137528;28;20458;-60
2021/05/17 07:17:46;;;;;;;2.92;1.23;;;19.80;53.10;;;;;;4131688;28;20480;-60
2021/05/17 07:19:48;;;;;;;2.97;1.20;;;19.80;53.20;;;;;;4137868;28;20033;-59
2021/05/17 07:24:11;;;;;;;2.25;1.10;;;19.80;53.30;;;;;;4137739;28;20048;-62
2021/05/17 07:26:19;;;;;;;2.75;1.25;;;19.70;53.30;;;;;;4136038;28;20044;-61
2021/05/17 07:28:21;;;;;;;1.00;0.80;;;19.80;53.40;;;;;;4134077;28;20108;-60
2021/05/17 07:30:26;;;;;;;3.83;1.35;;;19.70;53.30;;;;;;4138235;28;20045;-61
2021/05/17 07:32:28;;;;;;;1.55;0.90;;;19.70;53.30;;;;;;4135247;28;20045;-61
2021/05/17 07:34:34;;;;;;;4.45;1.10;;;19.70;53.50;;;;;;4139516;28;20578;-61
2021/05/17 07:36:36;;;;;;;1.33;0.93;;;19.70;53.70;;;;;;4137015;28;20037;-60
2021/05/17 07:38:40;;;;;;;3.45;1.10;;;19.70;53.70;;;;;;4135938;28;20572;-62
2021/05/17 07:40:42;;;;;;;3.08;1.08;;;19.70;53.70;;;;;;4133519;28;20033;-61
2021/05/17 07:42:44;;;;;;;4.22;1.50;;;19.70;53.80;;;;;;4139209;28;20490;-60
2021/05/17 07:44:46;;;;;;;2.58;1.10;;;19.70;53.90;;;;;;4131444;28;20160;-60
2021/05/17 07:46:48;;;;;;;4.65;1.10;;;19.70;54.00;;;;;;4136425;28;20322;-60
2021/05/17 07:51:25;;;;;;;4.40;1.17;;;19.70;54.00;;;;;;4104973;28;20053;-62
2021/05/17 07:53:30;;;;;;;1.57;0.90;;;19.70;53.90;;;;;;4133990;28;20204;-62
2021/05/17 07:55:33;;;;;;;1.80;1.02;;;19.70;53.90;;;;;;4130274;28;20301;-62
2021/05/17 07:57:35;;;;;;;2.47;0.97;;;19.70;54.00;;;;;;4137986;28;20048;-62
2021/05/17 07:59:37;;;;;;;1.13;0.70;;;19.70;54.00;;;;;;4130903;28;20622;-60
2021/05/17 08:01:39;;;;;;;2.58;1.13;;;19.70;54.00;;;;;;4135670;28;20056;-61
2021/05/17 08:03:42;;;;;;;3.30;1.00;;;19.70;53.90;;;;;;4134185;28;20048;-62
2021/05/17 08:05:44;;;;;;;2.43;0.97;;;19.70;54.00;;;;;;4137048;28;20601;-62
2021/05/17 08:07:50;;;;;;;1.23;0.90;;;19.70;54.00;;;;;;4134457;28;20036;-62
2021/05/17 08:09:53;;;;;;;2.17;1.30;;;19.70;54.00;;;;;;4138238;28;20033;-62
2021/05/17 08:11:58;;;;;;;1.58;0.98;;;19.70;54.10;;;;;;4130995;28;20045;-62
2021/05/17 08:14:00;;;;;;;2.47;0.90;;;19.70;54.10;;;;;;4135469;28;20037;-62
2021/05/17 08:16:03;;;;;;;2.97;0.90;;;19.60;54.00;;;;;;4133076;28;20114;-60
2021/05/17 08:18:05;;;;;;;4.13;1.38;;;19.60;54.00;;;;;;4126701;28;20044;-59
2021/05/17 08:20:11;;;;;;;1.23;0.90;;;19.60;54.70;;;;;;4135496;28;20045;-60
2021/05/17 08:22:13;;;;;;;1.35;1.05;;;19.60;54.00;;;;;;4143033;28;20037;-60
2021/05/17 08:24:15;;;;;;;2.60;1.10;;;19.60;54.10;;;;;;4137437;28;20060;-60
2021/05/17 08:26:17;;;;;;;2.95;1.00;;;19.60;54.10;;;;;;4141601;28;20119;-62
2021/05/17 08:28:20;;;;;;;2.83;1.08;;;19.60;54.10;;;;;;4143191;28;21183;-63
2021/05/17 08:30:24;;;;;;;2.30;1.60;;;19.60;54.10;;;;;;4142895;28;20149;-58
2021/05/17 08:32:26;;;;;;;2.20;1.10;;;19.50;54.00;;;;;;4140093;28;20084;-62
2021/05/17 08:34:29;;;;;;;1.20;1.00;;;19.60;54.10;;;;;;4141308;28;20138;-61
2021/05/17 08:36:31;;;;;;;1.83;1.27;;;19.60;54.10;;;;;;4142420;28;20037;-63
2021/05/17 08:38:33;;;;;;;2.88;1.00;;;19.50;54.10;;;;;;4139468;28;20289;-62
2021/05/17 08:40:38;;;;;;;3.60;1.17;;;19.50;53.90;;;;;;4141193;28;20143;-62
2021/05/17 08:42:41;;;;;;;2.65;1.20;;;19.50;53.90;;;;;;4141556;28;21186;-62
2021/05/17 08:44:44;;;;;;;1.30;0.93;;;19.50;53.90;;;;;;4143797;28;20060;-62
2021/05/17 08:46:48;;;;;;;1.92;1.10;;;19.50;54.00;;;;;;4120289;28;20032;-62
2021/05/17 08:48:51;;;;;;;1.65;1.33;;;19.50;54.00;;;;;;4137140;28;20596;-62
2021/05/17 08:50:56;;;;;;;4.43;1.77;;;19.50;53.90;;;;;;4129740;28;20142;-62
2021/05/17 08:52:59;;;;;;;1.52;1.20;;;19.50;54.00;;;;;;4116851;28;20047;-63
2021/05/17 08:55:05;;;;;;;2.42;1.38;;;19.50;54.00;;;;;;4136412;28;20029;-61
2021/05/17 08:57:07;;;;;;;1.63;1.23;;;19.50;54.00;;;;;;4133397;28;20040;-62
2021/05/17 08:59:10;;;;;;;1.50;1.15;;;19.40;54.00;;;;;;4133571;28;20037;-63
2021/05/17 09:01:15;;;;;;;2.20;1.42;;;19.40;54.10;;;;;;4138714;28;20021;-63
2021/05/17 09:03:17;;;;;;;1.85;1.40;;;19.40;54.00;;;;;;4138580;28;20233;-62
2021/05/17 09:05:25;;;;;;;3.10;1.73;;;19.40;54.00;;;;;;4099111;28;20362;-62
2021/05/17 09:07:50;;;;;;;;;;;;;;;;;;;;;
2021/05/17 09:09:53;;;;;;;3.17;1.67;;;19.40;54.00;;;;;;4135079;28;20466;-64
2021/05/17 09:12:01;;;;;;;4.20;2.10;;;19.40;53.80;;;;;;4139573;28;20215;-62
2021/05/17 09:14:14;;;;;;;2.42;1.60;;;19.30;53.70;;;;;;4141299;28;20423;-63
2021/05/17 09:16:16;;;;;;;3.40;2.00;;;19.30;53.80;;;;;;4141841;28;20029;-63
2021/05/17 09:18:30;;;;;;;3.03;1.92;;;19.30;53.80;;;;;;4140116;28;20118;-62
2021/05/17 09:20:40;;;;;;;3.90;1.63;;;19.20;53.80;;;;;;4104402;28;20104;-63
2021/05/17 09:22:45;;;;;;;5.10;2.55;;;19.20;53.80;;;;;;4138870;28;20581;-63
2021/05/17 09:25:01;;;;;;;4.22;2.35;;;19.20;53.90;;;;;;4143182;28;20349;-65
2021/05/17 09:27:04;;;;;;;4.20;2.30;;;19.10;54.00;;;;;;4140670;28;20251;-65
2021/05/17 09:29:06;;;;;;;3.28;1.90;;;19.40;54.30;;;;;;4138553;28;20044;-63
2021/05/17 09:31:11;;;;;;;3.80;2.25;;;19.80;53.40;;;;;;4143098;28;20237;-62
2021/05/17 09:33:18;;;;;;;4.05;2.10;;;19.90;53.00;;;;;;4137340;28;20036;-63
2021/05/17 09:35:20;;;;;;;4.38;2.40;;;20.00;52.70;;;;;;4139785;28;20123;-60
2021/05/17 09:37:22;;;;;;;3.20;2.30;;;19.90;52.70;;;;;;4137275;28;20055;-62
2021/05/17 09:39:25;;;;;;;2.60;2.08;;;19.90;52.90;;;;;;4140474;28;21239;-60
2021/05/17 09:41:38;;;;;;;5.65;2.20;;;19.80;53.10;;;;;;4138644;28;20394;-64
2021/05/17 09:43:47;;;;;;;2.83;2.05;;;19.80;53.20;;;;;;4125701;28;20055;-62
2021/05/17 09:45:49;;;;;;;3.22;1.98;;;19.70;53.30;;;;;;4153001;28;21285;-61
2021/05/17 09:47:56;;;;;;;2.95;1.92;;;19.70;53.50;;;;;;4136698;28;20400;-61
2021/05/17 09:49:59;;;;;;;2.65;1.92;;;19.70;53.70;;;;;;4121326;28;20248;-64
2021/05/17 09:52:18;;;;;;;11.10;2.35;;;19.60;53.60;;;;;;4148101;28;20079;-65
2021/05/17 09:54:20;;;;;;;5.80;2.33;;;19.60;53.70;;;;;;4138806;28;20049;-63
2021/05/17 09:56:23;;;;;;;7.00;2.35;;;19.80;53.50;;;;;;4136470;28;20493;-64
2021/05/17 09:58:34;;;;;;;4.93;2.10;;;20.00;53.00;;;;;;4138446;28;20345;-64
2021/05/17 10:00:37;;;;;;;5.65;2.13;;;20.00;52.80;;;;;;4137156;28;20152;-64
2021/05/17 10:02:53;;;;;;;3.67;1.92;;;20.00;52.70;;;;;;4132354;28;20911;-64
2021/05/17 10:05:10;;;;;;;4.70;1.63;;;19.90;52.80;;;;;;4137187;28;20447;-63
2021/05/17 10:07:16;;;;;;;4.03;1.38;;;19.80;53.00;;;;;;4137868;28;20025;-63
2021/05/17 10:09:18;;;;;;;3.50;2.00;;;19.80;53.00;;;;;;4132709;28;20033;-66
2021/05/17 10:11:22;;;;;;;3.90;1.60;;;19.80;53.20;;;;;;4134461;28;20033;-64
2021/05/17 10:13:25;;;;;;;3.88;1.90;;;19.70;53.20;;;;;;4138630;28;20043;-63
2021/05/17 10:15:30;;;;;;;4.55;1.52;;;19.70;53.30;;;;;;4136998;28;20503;-65
2021/05/17 10:17:34;;;;;;;5.97;1.30;;;19.60;53.40;;;;;;4135824;28;20037;-63
2021/05/17 10:19:36;;;;;;;2.30;1.30;;;19.60;53.50;;;;;;4122732;28;20059;-65
2021/05/17 10:21:39;;;;;;;1.63;1.40;;;19.80;53.60;;;;;;4137439;28;20151;-64
2021/05/17 10:23:41;;;;;;;1.98;1.30;;;19.90;53.00;;;;;;4137600;28;20146;-64
2021/05/17 10:25:49;;;;;;;2.53;1.55;;;20.00;52.70;;;;;;4131269;28;20029;-64
2021/05/17 10:28:00;;;;;;;3.65;1.50;;;20.00;52.70;;;;;;4120126;28;20046;-67
2021/05/17 10:30:11;;;;;;;3.15;1.33;;;19.90;52.70;;;;;;4135126;28;20525;-66
2021/05/17 10:32:14;;;;;;;4.00;1.48;;;19.90;52.90;;;;;;4137826;28;20872;-67
2021/05/17 10:34:16;;;;;;;2.13;1.40;;;19.80;53.10;;;;;;4134889;28;20033;-65
2021/05/17 10:36:18;;;;;;;4.53;1.38;;;19.80;53.20;;;;;;4136421;28;20451;-62
2021/05/17 10:40:40;;;;;;;3.70;1.95;;;19.70;53.40;;;;;;4130114;28;20044;-63
2021/05/17 10:42:58;;;;;;;4.15;1.50;;;19.70;53.40;;;;;;4148989;28;20346;-62
2021/05/17 10:51:20;;;;;;;4.28;1.20;;;19.70;52.60;;;;;;4175779;28;20564;-62
2021/05/17 10:53:53;;;;;;;11.63;1.98;;;19.70;52.50;;;;;;4132425;28;20049;-61
2021/05/17 10:55:58;;;;;;;9.57;1.80;;;19.60;53.30;;;;;;4141821;28;20241;-62
2021/05/17 11:00:22;;;;;;;9.40;1.88;;;19.60;54.10;;;;;;4130030;28;20029;-62
2021/05/17 11:02:29;;;;;;;10.23;2.17;;;19.60;54.30;;;;;;4142883;28;20136;-62
2021/05/17 11:04:36;;;;;;;6.80;1.75;;;19.50;54.30;;;;;;4134237;28;20063;-62
2021/05/17 11:07:01;;;;;;;9.75;2.22;;;19.50;54.60;;;;;;4144007;28;20021;-60
2021/05/17 11:09:13;;;;;;;11.20;2.13;;;19.50;54.70;;;;;;4118900;28;20603;-57
2021/05/17 11:11:17;;;;;;;9.52;2.33;;;19.50;54.50;;;;;;4142660;28;20395;-59
2021/05/17 11:13:28;;;;;;;9.65;1.75;;;19.50;54.50;;;;;;4141739;28;20039;-60
2021/05/17 11:15:41;;;;;;;4.55;1.48;;;19.50;54.60;;;;;;4143888;28;20479;-59
2021/05/17 11:18:20;;;;;;;3.72;1.08;;;19.40;54.70;;;;;;4141856;28;20688;-60
2021/05/17 11:20:51;;;;;;;3.30;1.50;;;19.40;54.80;;;;;;4142432;28;20044;-64
2021/05/17 11:22:53;;;;;;;5.63;1.55;;;19.30;55.00;;;;;;4142667;28;20227;-63